Portada
METAR-TAF:

METAR-TAF

Aeroports :

Nijnekamsk, Rússia

latitud: 55-33-48N, longitud: 052-05-42E, altitud: 196 m

Observació

L'informe es va fer fa 28 minuts, a les 10:30 UTC
Vent 14 kt del Sud amb ràfegues de 23 kt
Temperatura 13°C
Humitat 33%
Pressió 1011 hPa
Visibilitat 10 km o més
sense núvols per sota de 1500 mi sense presència de cumulonimbus.

METAR: UWKE 301030Z 19007G12MPS CAVOK 13/M03 Q1011 R21/090070 NOSIG RMK QFE741/0989

Hora: 13:58 (10:58 UTC)

Pronòstic

L'informe es va fer fa 3 hores i 13 minuts, a les 07:45 UTC
Pronòstic vàlid del 30 a les 09 UTC al 31 a les 09 UTC
Vent 12 kt del Sud amb ràfegues de 23 kt
Visibilitat 10 km o més
sense núvols per sota de 1500 mi sense presència de cumulonimbus.
Temporalment
l' 30 a les 09 UTC al 30 a les 15 UTC
Vent 14 kt del Sud/Sud-Oest amb ràfegues de 27 kt
Temporalment
l' 30 a les 18 UTC al 31 a les 07 UTC
Vent 10 kt del Sud/Sud-Est

TAF: UWKE 300745Z 3009/3109 18006G12MPS CAVOK TEMPO 3009/3015 20007G14MPS TEMPO 3018/3107 16005MPS

Observacions i pronòstics meteorològics de més de 4000 aeroports (METAR i TAF).

Les estacions disponibles són els punts grocs i vermells al mapa.

Posi el ratolí al punt desitjat per veure el nom de l'estació.

Feu clic per veure les observacions i els pronòstics meteorològics.

Per canviar el mapa: feu clic els botons verds amb una creu de color negre per apropar; al botó verd amb un guió per allunyar la imatge; o en les fletxes verdes per a mapes adjacents.


METAR-TAF: